Time;durP1;ratioP1;P1;durP2;ratioP2;P2;SDS_P1;SDS_P2;PMS_P1;PMS_P2;Temp;Humidity;BMP_temperature;BMP_pressure;BME280_temperature;BME280_humidity;BME280_pressure;Samples;Min_cycle;Max_cycle;Signal;HPM_P1;HPM_P2
2021/11/30 00:01:01;;;;;;;8.45;7.40;;;4.70;99.90;;;;;;5071994;28;20199;-51
2021/11/30 00:03:27;;;;;;;10.48;7.68;;;4.60;99.90;;;;;;5053049;28;20214;-51
2021/11/30 00:05:54;;;;;;;8.65;7.05;;;4.40;99.90;;;;;;5071734;28;20214;-51
2021/11/30 00:08:21;;;;;;;9.30;7.68;;;4.20;99.90;;;;;;5071382;28;20262;-50
2021/11/30 00:10:49;;;;;;;8.15;6.82;;;4.70;99.90;;;;;;5071751;28;20550;-51
2021/11/30 00:13:18;;;;;;;9.63;7.55;;;5.00;99.90;;;;;;5071807;28;20530;-51
2021/11/30 00:15:45;;;;;;;8.63;7.22;;;4.70;99.90;;;;;;5071811;28;20219;-51
2021/11/30 00:18:12;;;;;;;8.80;7.10;;;4.70;99.90;;;;;;5071130;28;20219;-51
2021/11/30 00:20:41;;;;;;;9.63;7.55;;;4.70;99.90;;;;;;5072036;28;20196;-52
2021/11/30 00:23:09;;;;;;;10.52;7.47;;;5.00;99.90;;;;;;5071852;28;20195;-51
2021/11/30 00:25:36;;;;;;;10.00;7.95;;;5.30;99.90;;;;;;5078427;28;20191;-51
2021/11/30 00:28:05;;;;;;;9.40;8.30;;;5.00;99.90;;;;;;5091405;28;20225;-51
2021/11/30 00:30:32;;;;;;;11.13;8.10;;;4.90;99.90;;;;;;5091896;28;20198;-51
2021/11/30 00:32:59;;;;;;;8.65;7.75;;;5.00;99.90;;;;;;5091455;28;20199;-51
2021/11/30 00:35:27;;;;;;;11.68;9.00;;;5.10;99.90;;;;;;5092070;28;20218;-51
2021/11/30 00:37:54;;;;;;;11.88;9.45;;;4.90;99.90;;;;;;5091440;28;20207;-50
2021/11/30 00:40:20;;;;;;;11.32;9.55;;;4.80;99.90;;;;;;5091625;28;20188;-51
2021/11/30 00:42:47;;;;;;;10.82;8.52;;;5.00;99.90;;;;;;5092093;28;20252;-50
2021/11/30 00:45:17;;;;;;;12.50;9.93;;;4.70;99.90;;;;;;5091663;28;20198;-51
2021/11/30 00:47:49;;;;;;;18.15;11.38;;;5.00;99.90;;;;;;5081597;28;20253;-51
2021/11/30 00:50:17;;;;;;;13.57;9.60;;;4.50;99.90;;;;;;5071701;28;20192;-51
2021/11/30 00:52:44;;;;;;;16.08;11.45;;;4.90;99.90;;;;;;5071526;28;20248;-51
2021/11/30 00:55:11;;;;;;;13.18;10.35;;;5.20;99.90;;;;;;5071490;28;20227;-51
2021/11/30 00:57:39;;;;;;;13.38;11.10;;;5.20;99.90;;;;;;5071503;28;20227;-51
2021/11/30 01:00:09;;;;;;;17.00;11.23;;;5.30;99.90;;;;;;5071381;28;20199;-51
2021/11/30 01:02:37;;;;;;;13.75;10.70;;;5.20;99.90;;;;;;5071081;28;20195;-51
2021/11/30 01:05:06;;;;;;;16.13;11.75;;;4.70;99.90;;;;;;5071356;28;20192;-52
2021/11/30 01:07:35;;;;;;;14.77;10.90;;;5.10;99.90;;;;;;5071125;28;20219;-51
2021/11/30 01:10:04;;;;;;;16.75;11.98;;;5.30;99.90;;;;;;5071260;28;20278;-52
2021/11/30 01:12:31;;;;;;;14.13;10.75;;;5.00;99.90;;;;;;5071205;28;20282;-52
2021/11/30 01:14:58;;;;;;;15.55;12.88;;;5.30;99.90;;;;;;5073784;28;20248;-51
2021/11/30 01:17:24;;;;;;;15.32;11.10;;;5.10;99.90;;;;;;5074734;28;20203;-51
2021/11/30 01:19:52;;;;;;;14.77;11.60;;;4.70;99.90;;;;;;5074542;28;20200;-51
2021/11/30 01:22:19;;;;;;;14.80;11.05;;;5.20;99.90;;;;;;5074886;28;20210;-52
2021/11/30 01:24:45;;;;;;;14.63;10.88;;;4.80;99.90;;;;;;5074974;28;20202;-51
2021/11/30 01:27:12;;;;;;;15.48;12.00;;;5.10;99.90;;;;;;5094401;28;20233;-52
2021/11/30 01:29:39;;;;;;;15.32;12.13;;;5.10;99.90;;;;;;5094774;28;20187;-51
2021/11/30 01:32:06;;;;;;;17.08;12.27;;;4.80;99.90;;;;;;5094903;28;20199;-51
2021/11/30 01:34:33;;;;;;;13.82;11.15;;;5.30;99.90;;;;;;5095067;28;20539;-51
2021/11/30 01:37:01;;;;;;;15.35;10.95;;;5.30;99.90;;;;;;5094616;28;20237;-51
2021/11/30 01:39:28;;;;;;;14.05;11.05;;;5.30;99.90;;;;;;5094329;28;20214;-51
2021/11/30 01:41:55;;;;;;;14.77;11.75;;;4.60;99.90;;;;;;5094671;28;20214;-51
2021/11/30 01:44:34;;;;;;;14.45;11.95;;;5.00;99.90;;;;;;5094652;28;20245;-52
2021/11/30 01:47:10;;;;;;;14.15;11.00;;;5.20;99.90;;;;;;5090870;28;20204;-51
2021/11/30 01:49:37;;;;;;;13.52;11.30;;;5.40;99.90;;;;;;5074288;28;20721;-51
2021/11/30 01:52:07;;;;;;;14.55;11.35;;;4.60;99.90;;;;;;5074248;28;20227;-50
2021/11/30 01:54:38;;;;;;;17.15;11.50;;;5.20;99.90;;;;;;5074271;28;20207;-51
2021/11/30 01:57:06;;;;;;;15.38;12.10;;;5.00;99.90;;;;;;5074525;28;20305;-51
2021/11/30 01:59:33;;;;;;;15.50;12.90;;;5.10;99.90;;;;;;5073364;28;20660;-51
2021/11/30 02:01:59;;;;;;;15.65;11.95;;;5.20;99.90;;;;;;5073931;28;20269;-51
2021/11/30 02:04:26;;;;;;;15.15;11.90;;;5.10;99.90;;;;;;5074057;28;20199;-51
2021/11/30 02:06:52;;;;;;;15.07;12.32;;;5.20;99.90;;;;;;5073969;28;20187;-51
2021/11/30 02:09:21;;;;;;;15.65;12.80;;;4.70;99.90;;;;;;5073285;28;20286;-51
2021/11/30 02:11:48;;;;;;;15.73;12.20;;;5.30;99.90;;;;;;5073649;28;20200;-51
2021/11/30 02:14:14;;;;;;;16.15;12.07;;;5.10;99.90;;;;;;5073639;28;20208;-51
2021/11/30 02:16:41;;;;;;;13.80;11.80;;;5.00;99.90;;;;;;5055511;28;20223;-51
2021/11/30 02:19:08;;;;;;;14.20;11.77;;;4.90;99.90;;;;;;5073002;28;20464;-51
2021/11/30 02:21:38;;;;;;;15.77;12.40;;;5.20;99.90;;;;;;5073547;28;20651;-51
2021/11/30 02:24:06;;;;;;;14.48;11.98;;;4.90;99.90;;;;;;5073513;28;20203;-51
2021/11/30 02:26:35;;;;;;;14.80;11.15;;;4.70;99.90;;;;;;5087228;28;20219;-51
2021/11/30 02:29:02;;;;;;;13.82;11.65;;;4.90;99.90;;;;;;5093178;28;20223;-51
2021/11/30 02:31:33;;;;;;;14.50;12.52;;;5.20;99.90;;;;;;5093343;28;20202;-52
2021/11/30 02:34:00;;;;;;;15.73;12.18;;;5.10;99.90;;;;;;5093439;28;20206;-51
2021/11/30 02:36:30;;;;;;;16.17;13.57;;;4.90;99.90;;;;;;5093452;28;20297;-51
2021/11/30 02:39:00;;;;;;;19.88;13.00;;;5.20;99.90;;;;;;5093279;28;20260;-50
2021/11/30 02:41:28;;;;;;;19.35;13.90;;;4.70;99.90;;;;;;5093440;28;20201;-51
2021/11/30 02:43:55;;;;;;;16.77;13.48;;;5.30;99.90;;;;;;5093264;28;20195;-51
2021/11/30 02:46:31;;;;;;;15.70;13.02;;;4.90;99.90;;;;;;5093377;28;20621;-51
2021/11/30 02:48:58;;;;;;;17.20;13.45;;;5.10;99.90;;;;;;5072897;28;20231;-52
2021/11/30 02:51:25;;;;;;;18.33;14.25;;;5.10;99.90;;;;;;5073133;28;20195;-51
2021/11/30 02:53:52;;;;;;;20.88;14.55;;;5.20;99.90;;;;;;5072976;28;20250;-51
2021/11/30 02:56:20;;;;;;;19.50;14.63;;;4.50;99.90;;;;;;5072734;28;20266;-50
2021/11/30 02:58:47;;;;;;;19.17;14.38;;;4.60;99.90;;;;;;5071993;28;20730;-50
2021/11/30 03:01:14;;;;;;;19.50;14.35;;;5.00;99.90;;;;;;5073072;28;20218;-51
2021/11/30 03:03:41;;;;;;;21.98;14.02;;;5.10;99.90;;;;;;5072505;28;20290;-51
2021/11/30 03:06:08;;;;;;;17.58;13.02;;;4.50;99.90;;;;;;5072672;28;20200;-51
2021/11/30 03:08:38;;;;;;;20.42;14.52;;;4.90;99.90;;;;;;5072037;28;20222;-51
2021/11/30 03:11:05;;;;;;;20.58;14.73;;;5.00;99.90;;;;;;5072459;28;20203;-51
2021/11/30 03:13:33;;;;;;;20.17;15.27;;;5.10;99.90;;;;;;5072388;28;20260;-50
2021/11/30 03:16:00;;;;;;;20.38;14.38;;;5.10;99.90;;;;;;5072571;28;20219;-51
2021/11/30 03:18:26;;;;;;;19.35;14.88;;;5.00;99.90;;;;;;5071977;28;20215;-51
2021/11/30 03:20:53;;;;;;;19.33;15.60;;;4.80;99.90;;;;;;5072394;28;20202;-51
2021/11/30 03:23:20;;;;;;;19.70;14.90;;;4.80;99.90;;;;;;5054400;28;20207;-51
2021/11/30 03:25:46;;;;;;;20.17;15.70;;;4.90;99.90;;;;;;5080363;28;20194;-51
2021/11/30 03:28:13;;;;;;;21.48;15.23;;;4.80;99.90;;;;;;5092147;28;20225;-51
2021/11/30 03:30:53;;;;;;;21.23;14.55;;;4.70;99.90;;;;;;5092443;28;20198;-51
2021/11/30 03:36:04;;;;;;;23.70;16.40;;;5.10;99.90;;;;;;5092298;28;20218;-52
2021/11/30 03:38:30;;;;;;;19.48;15.50;;;4.70;99.90;;;;;;5091921;28;20641;-51
2021/11/30 03:40:57;;;;;;;19.85;15.50;;;4.90;99.90;;;;;;5092322;28;20194;-51
2021/11/30 03:43:24;;;;;;;20.02;15.05;;;5.00;99.90;;;;;;5092151;28;20210;-50
2021/11/30 03:45:51;;;;;;;21.65;15.77;;;4.70;99.90;;;;;;5092177;28;20194;-51
2021/11/30 03:48:18;;;;;;;18.67;14.85;;;4.80;99.90;;;;;;5077065;28;20231;-51
2021/11/30 03:50:45;;;;;;;22.20;16.35;;;4.60;99.90;;;;;;5071804;28;20691;-51
2021/11/30 03:53:12;;;;;;;19.58;15.60;;;4.40;99.90;;;;;;5071936;28;20211;-52
2021/11/30 03:55:38;;;;;;;26.50;17.40;;;4.80;99.90;;;;;;5071692;28;20204;-51
2021/11/30 03:58:05;;;;;;;18.10;15.48;;;4.80;99.90;;;;;;5071179;28;20230;-51
2021/11/30 04:00:31;;;;;;;20.25;15.90;;;4.80;99.90;;;;;;5071692;28;20616;-50
2021/11/30 04:02:59;;;;;;;22.02;14.45;;;4.70;99.90;;;;;;5071546;28;20659;-51
2021/11/30 04:05:26;;;;;;;22.95;17.05;;;5.00;99.90;;;;;;5071449;28;20200;-50
2021/11/30 04:07:53;;;;;;;18.38;14.85;;;4.90;99.90;;;;;;5071400;28;20568;-51
2021/11/30 04:10:20;;;;;;;21.83;16.27;;;4.80;99.90;;;;;;5071296;28;20571;-51
2021/11/30 04:12:46;;;;;;;19.92;15.88;;;4.30;99.90;;;;;;5071613;28;20207;-50
2021/11/30 04:15:13;;;;;;;19.00;15.50;;;4.80;99.90;;;;;;5071478;28;20199;-51
2021/11/30 04:17:41;;;;;;;20.52;15.55;;;4.60;99.90;;;;;;5071056;28;20227;-51
2021/11/30 04:20:10;;;;;;;22.73;16.17;;;4.80;99.90;;;;;;5071204;28;20196;-51
2021/11/30 04:22:37;;;;;;;19.67;15.40;;;5.00;99.90;;;;;;5071572;28;20199;-51
2021/11/30 04:25:04;;;;;;;21.67;16.10;;;5.00;99.90;;;;;;5073230;28;20199;-51
2021/11/30 04:27:32;;;;;;;20.85;16.80;;;4.70;99.90;;;;;;5091458;28;20294;-51
2021/11/30 04:29:58;;;;;;;23.15;15.88;;;4.70;99.90;;;;;;5073108;28;20210;-51
2021/11/30 04:32:25;;;;;;;21.30;16.25;;;4.70;99.90;;;;;;5091507;28;20190;-52
2021/11/30 04:34:52;;;;;;;19.27;14.02;;;4.20;99.90;;;;;;5091750;28;20536;-51
2021/11/30 04:37:20;;;;;;;22.95;15.75;;;4.80;99.90;;;;;;5091864;28;20221;-51
2021/11/30 04:39:47;;;;;;;20.40;15.55;;;4.80;99.90;;;;;;5091048;28;20191;-51
2021/11/30 04:42:14;;;;;;;17.73;13.52;;;4.60;99.90;;;;;;5073305;28;20674;-51
2021/11/30 04:44:50;;;;;;;19.27;14.18;;;4.90;99.90;;;;;;5091366;28;20198;-51
2021/11/30 04:47:17;;;;;;;23.55;14.05;;;4.80;99.90;;;;;;5085165;28;20584;-51
2021/11/30 04:49:53;;;;;;;18.30;13.90;;;4.60;99.90;;;;;;5072979;28;20195;-51
2021/11/30 04:52:22;;;;;;;17.73;14.27;;;4.50;99.90;;;;;;5075099;28;20668;-50
2021/11/30 04:54:49;;;;;;;18.92;13.98;;;4.50;99.90;;;;;;5074976;28;20533;-51
2021/11/30 04:57:16;;;;;;;21.70;14.38;;;5.10;99.90;;;;;;5074700;28;20226;-51
2021/11/30 04:59:42;;;;;;;18.90;14.13;;;4.50;99.90;;;;;;5075657;28;20184;-50
2021/11/30 05:02:09;;;;;;;18.42;14.45;;;4.50;99.90;;;;;;5074788;28;20217;-52
2021/11/30 05:04:39;;;;;;;18.30;13.98;;;4.70;99.90;;;;;;5074848;28;20195;-51
2021/11/30 05:07:06;;;;;;;29.85;25.52;;;4.50;99.90;;;;;;5074627;28;20678;-50
2021/11/30 05:09:34;;;;;;;22.45;15.95;;;4.50;99.90;;;;;;5074199;28;20223;-51
2021/11/30 05:12:01;;;;;;;17.95;14.00;;;4.40;99.90;;;;;;5074605;28;20198;-51
2021/11/30 05:14:27;;;;;;;18.90;12.60;;;3.90;99.90;;;;;;5074662;28;20214;-51
2021/11/30 05:16:55;;;;;;;20.90;14.43;;;4.40;99.90;;;;;;5074587;28;20234;-51
2021/11/30 05:19:22;;;;;;;16.63;12.73;;;4.40;99.90;;;;;;5073881;28;20215;-51
2021/11/30 05:21:48;;;;;;;16.52;13.05;;;4.50;99.90;;;;;;5074638;28;20199;-50
2021/11/30 05:24:15;;;;;;;19.00;14.13;;;4.40;99.90;;;;;;5074696;28;20195;-51
2021/11/30 05:26:43;;;;;;;17.80;12.82;;;4.40;99.90;;;;;;5089791;28;20230;-51
2021/11/30 05:29:10;;;;;;;20.92;13.88;;;4.00;99.90;;;;;;5094571;28;20636;-51
2021/11/30 05:31:36;;;;;;;17.05;12.68;;;4.60;99.90;;;;;;5094631;28;20198;-52
2021/11/30 05:34:04;;;;;;;18.63;12.98;;;4.40;99.90;;;;;;5076588;28;20206;-51
2021/11/30 05:36:33;;;;;;;18.17;12.57;;;4.00;99.90;;;;;;5094183;28;20230;-51
2021/11/30 05:39:00;;;;;;;18.70;12.70;;;4.50;99.90;;;;;;5093544;28;20703;-51
2021/11/30 05:41:27;;;;;;;17.45;12.68;;;4.40;99.90;;;;;;5094270;28;20198;-51
2021/11/30 05:43:55;;;;;;;18.58;12.98;;;4.40;99.90;;;;;;5094667;28;20195;-52
2021/11/30 05:46:22;;;;;;;15.52;11.68;;;4.50;99.90;;;;;;5094092;28;20198;-51
2021/11/30 05:48:48;;;;;;;19.55;13.65;;;4.90;99.90;;;;;;5074821;28;20357;-50
2021/11/30 05:51:15;;;;;;;17.77;12.88;;;5.00;99.90;;;;;;5074087;28;20243;-51
2021/11/30 05:53:42;;;;;;;17.33;12.55;;;4.20;99.90;;;;;;5073989;28;20203;-51
2021/11/30 05:56:09;;;;;;;17.58;12.40;;;4.10;99.90;;;;;;5073643;28;20203;-50
2021/11/30 05:58:38;;;;;;;16.15;11.40;;;4.40;99.90;;;;;;5073284;28;20231;-50
2021/11/30 06:01:20;;;;;;;17.90;11.68;;;4.50;99.90;;;;;;5072423;28;20214;-51
2021/11/30 06:03:58;;;;;;;15.75;10.90;;;4.20;99.90;;;;;;5073654;28;20207;-51
2021/11/30 06:06:25;;;;;;;16.40;11.48;;;4.40;99.90;;;;;;5073652;28;20290;-50
2021/11/30 06:08:52;;;;;;;27.27;15.60;;;4.50;99.90;;;;;;5054852;28;20242;-50
2021/11/30 06:11:18;;;;;;;14.85;10.77;;;4.50;99.90;;;;;;5073380;28;20196;-50
2021/11/30 06:13:45;;;;;;;13.52;10.18;;;4.40;99.90;;;;;;5073508;28;20199;-51
2021/11/30 06:16:13;;;;;;;13.27;10.45;;;4.20;99.90;;;;;;5073069;28;20245;-51
2021/11/30 06:18:40;;;;;;;16.25;10.63;;;4.30;99.90;;;;;;5072730;28;20593;-50
2021/11/30 06:21:07;;;;;;;14.98;11.32;;;4.40;99.90;;;;;;5073339;28;20203;-50
2021/11/30 06:23:34;;;;;;;14.98;11.02;;;4.30;99.90;;;;;;5055789;28;20586;-51
2021/11/30 06:26:00;;;;;;;15.60;9.98;;;4.90;99.90;;;;;;5082912;28;20208;-51
2021/11/30 06:28:27;;;;;;;14.10;10.23;;;4.40;99.90;;;;;;5092885;28;20210;-51
2021/11/30 06:30:53;;;;;;;15.73;11.07;;;3.90;99.90;;;;;;5092823;28;20512;-52
2021/11/30 06:33:21;;;;;;;16.10;10.63;;;4.20;99.90;;;;;;5092950;28;20210;-53
2021/11/30 06:35:48;;;;;;;15.88;11.40;;;4.20;99.90;;;;;;5092675;28;20210;-51
2021/11/30 06:38:15;;;;;;;12.50;9.77;;;4.90;99.90;;;;;;5093142;28;20229;-49
2021/11/30 06:40:41;;;;;;;15.85;11.80;;;4.40;99.90;;;;;;5093112;28;20199;-51
2021/11/30 06:43:08;;;;;;;15.57;11.40;;;4.10;99.90;;;;;;5092394;28;20199;-52
2021/11/30 06:45:35;;;;;;;15.90;10.75;;;4.40;99.90;;;;;;5093019;28;20251;-49
2021/11/30 06:48:02;;;;;;;17.17;10.45;;;3.90;99.90;;;;;;5080240;28;20273;-50
2021/11/30 06:50:29;;;;;;;16.80;12.05;;;4.10;99.90;;;;;;5072398;28;20199;-52
2021/11/30 06:52:56;;;;;;;12.80;10.00;;;4.30;99.90;;;;;;5072742;28;20197;-52
2021/11/30 06:55:23;;;;;;;15.20;11.23;;;4.10;99.90;;;;;;5073649;28;20202;-51
2021/11/30 06:57:50;;;;;;;14.93;9.90;;;4.20;99.90;;;;;;5072287;28;20219;-51
2021/11/30 07:00:20;;;;;;;13.90;10.20;;;4.20;99.90;;;;;;5072223;28;20192;-51
2021/11/30 07:02:48;;;;;;;14.77;9.82;;;4.40;99.90;;;;;;5072065;28;20207;-53
2021/11/30 07:05:19;;;;;;;12.18;9.15;;;4.30;99.90;;;;;;5072001;28;20256;-53
2021/11/30 07:07:56;;;;;;;15.38;10.15;;;4.30;99.90;;;;;;5071791;28;20287;-50
2021/11/30 07:10:36;;;;;;;14.07;9.80;;;4.40;99.90;;;;;;5072287;28;20219;-51
2021/11/30 07:13:13;;;;;;;15.80;11.40;;;4.10;99.90;;;;;;5071748;28;20186;-51
2021/11/30 07:15:40;;;;;;;13.15;9.90;;;4.50;99.90;;;;;;5071888;28;20199;-51
2021/11/30 07:18:06;;;;;;;11.88;8.98;;;4.00;99.90;;;;;;5071397;28;20223;-49
2021/11/30 07:20:33;;;;;;;12.48;9.40;;;3.70;99.90;;;;;;5072482;28;20609;-50
2021/11/30 07:23:01;;;;;;;12.45;8.77;;;4.20;99.90;;;;;;5072335;28;20187;-51
2021/11/30 07:25:28;;;;;;;10.88;9.00;;;4.30;99.90;;;;;;5059477;28;20234;-51
2021/11/30 07:27:55;;;;;;;16.45;10.40;;;4.50;99.90;;;;;;5091920;28;20210;-49
2021/11/30 07:30:22;;;;;;;12.55;9.20;;;4.40;99.90;;;;;;5073749;28;20202;-50
2021/11/30 07:32:49;;;;;;;13.75;9.38;;;4.40;99.90;;;;;;5073507;28;20206;-51
2021/11/30 07:35:19;;;;;;;10.32;8.63;;;4.10;99.90;;;;;;5092118;28;20234;-49
2021/11/30 07:37:46;;;;;;;12.85;8.70;;;4.20;99.90;;;;;;5091419;28;20230;-49
2021/11/30 07:40:15;;;;;;;12.25;8.32;;;4.30;99.90;;;;;;5091642;28;20205;-50
2021/11/30 07:42:42;;;;;;;10.68;8.60;;;4.30;99.90;;;;;;5092001;28;20201;-51
2021/11/30 07:45:11;;;;;;;11.32;8.25;;;4.30;99.90;;;;;;5091789;28;20199;-50
2021/11/30 07:47:37;;;;;;;11.20;9.00;;;4.20;99.90;;;;;;5082213;28;20234;-50
2021/11/30 07:50:05;;;;;;;10.02;8.00;;;4.40;99.90;;;;;;5071678;28;20199;-51
2021/11/30 07:52:36;;;;;;;11.00;9.10;;;4.60;99.90;;;;;;5071413;28;20207;-55
2021/11/30 07:55:05;;;;;;;14.98;8.05;;;4.40;99.90;;;;;;5072199;28;20206;-50
2021/11/30 07:57:33;;;;;;;11.88;7.05;;;4.50;99.90;;;;;;5071128;28;20239;-53
2021/11/30 08:00:00;;;;;;;12.55;9.23;;;4.40;99.90;;;;;;5071016;28;20211;-53
2021/11/30 08:02:27;;;;;;;20.63;8.95;;;4.30;99.90;;;;;;5072097;28;20250;-51
2021/11/30 08:04:54;;;;;;;12.45;7.50;;;3.90;99.90;;;;;;5070807;28;20252;-53
2021/11/30 08:07:20;;;;;;;10.48;7.45;;;4.30;99.90;;;;;;5070920;28;20187;-51
2021/11/30 08:09:48;;;;;;;7.85;6.40;;;4.50;99.90;;;;;;5070876;28;20210;-51
2021/11/30 08:12:15;;;;;;;10.88;9.88;;;4.50;99.90;;;;;;5070649;28;20557;-52
2021/11/30 08:14:44;;;;;;;18.58;8.52;;;4.30;99.90;;;;;;5070969;28;20203;-50
2021/11/30 08:17:13;;;;;;;10.57;8.15;;;4.50;99.90;;;;;;5070428;28;20199;-49
2021/11/30 08:19:40;;;;;;;10.73;7.85;;;4.30;99.90;;;;;;5071070;28;20497;-50
2021/11/30 08:22:07;;;;;;;7.93;7.13;;;4.30;99.90;;;;;;5070849;28;20199;-50
2021/11/30 08:24:34;;;;;;;10.05;7.78;;;4.30;99.90;;;;;;5070438;28;20357;-49
2021/11/30 08:27:01;;;;;;;8.57;6.85;;;4.40;99.90;;;;;;5089642;28;20556;-52
2021/11/30 08:29:27;;;;;;;9.45;7.10;;;3.70;99.90;;;;;;5090289;28;20221;-51
2021/11/30 08:31:55;;;;;;;9.82;7.38;;;3.90;99.90;;;;;;5091068;28;20195;-50
2021/11/30 08:34:22;;;;;;;10.23;7.68;;;4.50;99.90;;;;;;5090804;28;20218;-49
2021/11/30 08:36:49;;;;;;;8.10;6.65;;;4.50;99.90;;;;;;5072691;28;20246;-49
2021/11/30 08:39:15;;;;;;;7.75;6.95;;;4.40;99.90;;;;;;5090090;28;20694;-51
2021/11/30 08:41:42;;;;;;;6.90;6.20;;;4.30;99.90;;;;;;5091115;28;20198;-50
2021/11/30 08:44:09;;;;;;;6.00;5.40;;;4.20;99.90;;;;;;5091182;28;20203;-51
2021/11/30 08:46:36;;;;;;;9.32;6.53;;;4.40;99.90;;;;;;5069402;28;20195;-52
2021/11/30 08:49:05;;;;;;;10.02;7.25;;;4.20;99.90;;;;;;5052449;28;20750;-53
2021/11/30 08:51:32;;;;;;;6.53;5.82;;;4.40;99.90;;;;;;5070902;28;20191;-51
2021/11/30 08:53:58;;;;;;;7.22;5.78;;;4.50;99.90;;;;;;5071042;28;20567;-50
2021/11/30 08:56:25;;;;;;;8.63;6.80;;;4.70;99.90;;;;;;5071136;28;20203;-50
2021/11/30 08:58:52;;;;;;;10.30;7.47;;;4.50;99.90;;;;;;5070103;28;20233;-51
2021/11/30 09:01:19;;;;;;;12.10;9.82;;;4.60;99.90;;;;;;5071134;28;20203;-51
2021/11/30 09:03:46;;;;;;;8.27;7.18;;;4.70;99.90;;;;;;5071009;28;20214;-53
2021/11/30 09:06:14;;;;;;;6.90;6.15;;;4.50;99.90;;;;;;5071261;28;20191;-51
2021/11/30 09:08:40;;;;;;;6.30;5.70;;;4.90;99.90;;;;;;5070236;28;20211;-51
2021/11/30 09:11:07;;;;;;;10.77;6.57;;;4.50;99.90;;;;;;5070686;28;20200;-51
2021/11/30 09:13:34;;;;;;;8.98;7.15;;;4.70;99.90;;;;;;5070381;28;20203;-51
2021/11/30 09:16:00;;;;;;;7.90;6.40;;;4.80;99.90;;;;;;5052778;28;20560;-52
2021/11/30 09:18:30;;;;;;;7.75;6.03;;;4.80;99.90;;;;;;5069976;28;20226;-51
2021/11/30 09:20:57;;;;;;;9.10;6.15;;;3.70;99.90;;;;;;5069996;28;20325;-52
2021/11/30 09:23:27;;;;;;;8.82;6.50;;;4.80;99.90;;;;;;5070194;28;20680;-51
2021/11/30 09:25:54;;;;;;;7.15;5.82;;;4.70;99.90;;;;;;5078983;28;20267;-51
2021/11/30 09:28:21;;;;;;;8.57;5.55;;;4.30;99.90;;;;;;5089639;28;20211;-50
2021/11/30 09:30:48;;;;;;;7.97;5.95;;;4.80;99.90;;;;;;5090766;28;20210;-53
2021/11/30 09:33:15;;;;;;;7.97;5.88;;;4.40;99.90;;;;;;5090815;28;20199;-51
2021/11/30 09:35:42;;;;;;;6.25;5.30;;;4.80;99.90;;;;;;5092662;28;20195;-50
2021/11/30 09:38:09;;;;;;;6.15;5.55;;;5.10;99.90;;;;;;5079848;28;20219;-51
2021/11/30 09:40:39;;;;;;;9.52;6.75;;;5.50;99.90;;;;;;5073618;28;20195;-51
2021/11/30 09:43:08;;;;;;;10.35;6.63;;;4.90;99.90;;;;;;5073739;28;20187;-52
2021/11/30 09:45:39;;;;;;;6.95;5.43;;;4.90;99.90;;;;;;5073823;28;20633;-52
2021/11/30 09:48:10;;;;;;;5.93;5.43;;;4.80;99.90;;;;;;5073467;28;20540;-52
2021/11/30 09:50:38;;;;;;;5.25;4.75;;;5.00;99.90;;;;;;5073709;28;20195;-51
2021/11/30 09:53:05;;;;;;;5.38;4.72;;;4.80;99.90;;;;;;5073801;28;20199;-51
2021/11/30 09:55:32;;;;;;;9.05;4.85;;;5.10;99.90;;;;;;5073789;28;20199;-51
2021/11/30 09:58:00;;;;;;;7.93;5.13;;;5.40;99.90;;;;;;5072801;28;20256;-53
2021/11/30 10:00:27;;;;;;;8.52;4.93;;;4.40;99.90;;;;;;5073794;28;20683;-52
2021/11/30 10:02:56;;;;;;;7.68;6.13;;;5.40;99.90;;;;;;5073713;28;20206;-52
2021/11/30 10:05:23;;;;;;;5.47;4.97;;;5.60;99.90;;;;;;5073516;28;20534;-51
2021/11/30 10:07:51;;;;;;;5.45;4.95;;;5.30;99.90;;;;;;5072843;28;20235;-51
2021/11/30 10:10:20;;;;;;;6.50;5.65;;;5.50;99.90;;;;;;5073843;28;20676;-52
2021/11/30 10:13:08;;;;;;;5.50;5.00;;;5.30;99.90;;;;;;5073372;28;20198;-51
2021/11/30 10:15:55;;;;;;;8.32;5.13;;;5.40;99.90;;;;;;5073401;28;20199;-50
2021/11/30 10:18:24;;;;;;;6.90;5.93;;;5.50;99.90;;;;;;5072794;28;20735;-51
2021/11/30 10:20:54;;;;;;;7.30;5.38;;;5.60;99.90;;;;;;5073351;28;20429;-51
2021/11/30 10:23:23;;;;;;;6.10;5.50;;;5.10;99.90;;;;;;5073614;28;20227;-51
2021/11/30 10:25:51;;;;;;;6.30;5.20;;;5.70;99.90;;;;;;5081373;28;20210;-51
2021/11/30 10:28:20;;;;;;;7.00;5.55;;;5.60;99.90;;;;;;5092955;28;20215;-50
2021/11/30 10:30:51;;;;;;;6.05;5.35;;;5.60;99.90;;;;;;5093308;28;20195;-51
2021/11/30 10:33:19;;;;;;;5.97;5.20;;;5.40;99.90;;;;;;5093721;28;20664;-51
2021/11/30 10:35:52;;;;;;;6.90;5.50;;;5.80;99.90;;;;;;5093670;28;20199;-50
2021/11/30 10:38:19;;;;;;;8.45;6.60;;;5.70;99.90;;;;;;5092674;28;20679;-53
2021/11/30 10:40:46;;;;;;;5.70;4.97;;;5.80;99.90;;;;;;5093115;28;20687;-50
2021/11/30 10:43:13;;;;;;;6.27;5.30;;;5.30;99.90;;;;;;5093079;28;20551;-50
2021/11/30 10:45:43;;;;;;;6.40;5.80;;;6.50;99.90;;;;;;5093324;28;20441;-51
2021/11/30 10:48:14;;;;;;;6.18;5.13;;;5.50;99.90;;;;;;5079250;28;20467;-49
2021/11/30 10:50:42;;;;;;;6.60;4.97;;;6.10;99.90;;;;;;5072892;28;20192;-51
2021/11/30 10:53:17;;;;;;;5.80;4.50;;;6.00;99.90;;;;;;5073206;28;20203;-50
2021/11/30 10:55:46;;;;;;;8.07;5.00;;;6.00;99.90;;;;;;5072739;28;20927;-50
2021/11/30 10:58:14;;;;;;;5.67;4.37;;;5.80;99.90;;;;;;5100580;22;20575;-49
2021/11/30 11:00:42;;;;;;;9.47;7.37;;;6.50;99.90;;;;;;5092614;28;20468;-49
2021/11/30 11:03:16;;;;;;;5.07;4.67;;;5.60;99.90;;;;;;5092731;28;20465;-49
2021/11/30 11:05:45;;;;;;;6.07;5.10;;;6.70;99.90;;;;;;5092558;28;20411;-50
2021/11/30 11:08:14;;;;;;;6.30;4.50;;;6.70;99.90;;;;;;5086286;28;20440;-49
2021/11/30 11:10:44;;;;;;;4.93;4.20;;;6.70;99.90;;;;;;5071950;28;20441;-50
2021/11/30 11:13:18;;;;;;;8.20;4.80;;;6.70;99.90;;;;;;5071887;28;20417;-50
2021/11/30 11:15:46;;;;;;;9.57;5.53;;;6.30;99.90;;;;;;5071318;28;20511;-49
2021/11/30 11:18:25;;;;;;;7.30;5.23;;;6.50;99.90;;;;;;5071277;28;20457;-49
2021/11/30 11:21:07;;;;;;;6.53;4.17;;;6.20;99.90;;;;;;5071944;28;20419;-49
2021/11/30 11:23:34;;;;;;;7.03;4.37;;;6.50;99.90;;;;;;5071303;28;21013;-48
2021/11/30 11:26:15;;;;;;;9.13;4.30;;;6.40;99.90;;;;;;5062207;28;20435;-48
2021/11/30 11:28:42;;;;;;;8.00;4.17;;;6.50;99.90;;;;;;5050864;28;20776;-50
2021/11/30 11:31:09;;;;;;;7.43;4.30;;;6.40;99.90;;;;;;5050898;28;20452;-49
2021/11/30 11:33:37;;;;;;;4.73;3.03;;;6.70;99.90;;;;;;5051803;28;20448;-49
2021/11/30 11:36:05;;;;;;;3.33;2.93;;;6.70;99.90;;;;;;5051311;28;20442;-49
2021/11/30 11:38:32;;;;;;;6.40;3.77;;;6.20;99.90;;;;;;5051221;28;20990;-50
2021/11/30 11:40:59;;;;;;;3.73;3.27;;;6.90;99.90;;;;;;5052004;28;20440;-49
2021/11/30 11:43:26;;;;;;;5.13;3.60;;;6.60;99.90;;;;;;5051824;28;20446;-48
2021/11/30 11:45:54;;;;;;;7.07;3.93;;;6.90;99.90;;;;;;5051353;28;20412;-50
2021/11/30 11:48:21;;;;;;;10.03;3.50;;;7.10;99.90;;;;;;5065471;28;20906;-50
2021/11/30 11:50:55;;;;;;;7.93;3.53;;;6.40;99.90;;;;;;5071718;28;20406;-49
2021/11/30 11:53:24;;;;;;;11.07;5.77;;;7.40;99.90;;;;;;5071078;28;20880;-48
2021/11/30 11:56:08;;;;;;;8.33;2.70;;;7.00;99.90;;;;;;5071402;28;20508;-49
2021/11/30 11:58:36;;;;;;;5.97;3.10;;;7.00;99.90;;;;;;5070054;28;20969;-48
2021/11/30 12:01:03;;;;;;;6.30;2.00;;;7.30;99.90;;;;;;5071064;28;20416;-50
2021/11/30 12:03:52;;;;;;;3.10;1.87;;;7.80;99.90;;;;;;5071034;28;20985;-49
2021/11/30 12:06:25;;;;;;;5.87;3.10;;;7.20;99.90;;;;;;5071052;28;20886;-49
2021/11/30 12:09:14;;;;;;;5.30;2.73;;;7.60;99.90;;;;;;5070812;28;20466;-49
2021/11/30 12:11:43;;;;;;;6.47;1.93;;;7.40;99.90;;;;;;5071122;28;20407;-49
2021/11/30 12:14:12;;;;;;;10.40;3.10;;;6.60;99.90;;;;;;5071201;28;20925;-49
2021/11/30 12:17:15;;;;;;;9.90;3.50;;;6.50;99.90;;;;;;5071429;28;20425;-49
2021/11/30 12:19:48;;;;;;;13.37;3.83;;;7.00;99.90;;;;;;5070748;28;20487;-48
2021/11/30 12:22:51;;;;;;;11.87;3.50;;;7.20;99.90;;;;;;5070941;28;20527;-48
2021/11/30 12:25:29;;;;;;;14.00;3.80;;;7.00;99.90;;;;;;5045407;28;20516;-50
2021/11/30 12:27:57;;;;;;;6.53;2.00;;;7.10;99.90;;;;;;5050701;28;20425;-50
2021/11/30 12:30:42;;;;;;;15.07;3.07;;;7.20;99.90;;;;;;5051079;28;20432;-49
2021/11/30 12:33:18;;;;;;;4.80;2.03;;;7.20;99.90;;;;;;5050937;28;20415;-49
2021/11/30 12:35:52;;;;;;;7.83;2.43;;;7.40;99.90;;;;;;5051331;28;20451;-49
2021/11/30 12:38:22;;;;;;;8.50;3.13;;;7.60;99.90;;;;;;5051114;28;20876;-49
2021/11/30 12:40:50;;;;;;;8.97;2.80;;;7.50;99.90;;;;;;5050833;28;20437;-50
2021/11/30 12:43:22;;;;;;;6.20;2.30;;;7.70;99.90;;;;;;5050319;28;20452;-50
2021/11/30 12:45:53;;;;;;;6.63;2.70;;;7.40;99.90;;;;;;5050624;28;20836;-50
2021/11/30 12:48:23;;;;;;;9.80;2.87;;;7.70;99.90;;;;;;5064506;28;20458;-49
2021/11/30 12:50:57;;;;;;;6.97;2.43;;;8.00;99.90;;;;;;5052828;28;20422;-49
2021/11/30 12:53:40;;;;;;;7.10;3.07;;;7.40;99.90;;;;;;5070726;28;20459;-50
2021/11/30 12:56:08;;;;;;;14.00;3.07;;;7.60;99.90;;;;;;5070969;28;20493;-46